createdAt,value
2023-03-29T00:00:22.413Z,14.80
2023-03-29T00:02:50.530Z,14.67
2023-03-29T00:05:23.088Z,14.27
2023-03-29T00:07:54.109Z,15.43
2023-03-29T00:10:24.198Z,15.10
2023-03-29T00:12:52.913Z,15.37
2023-03-29T00:15:22.862Z,14.47
2023-03-29T00:17:51.447Z,14.73
2023-03-29T00:20:21.044Z,14.70
2023-03-29T00:22:49.032Z,14.90
2023-03-29T00:25:17.209Z,13.67
2023-03-29T00:27:45.395Z,13.97
2023-03-29T00:30:14.972Z,14.07
2023-03-29T00:32:43.169Z,13.23
2023-03-29T00:35:11.846Z,13.87
2023-03-29T00:37:41.419Z,14.10
2023-03-29T00:40:12.743Z,14.87
2023-03-29T00:42:45.236Z,15.27
2023-03-29T00:45:19.839Z,14.93
2023-03-29T00:47:51.475Z,14.00
2023-03-29T00:50:25.861Z,14.93
2023-03-29T00:53:00.990Z,14.77
2023-03-29T00:55:33.106Z,14.27
2023-03-29T00:58:02.702Z,15.07
2023-03-29T01:00:34.469Z,13.57
2023-03-29T01:03:07.087Z,14.80
2023-03-29T01:05:39.333Z,14.10
2023-03-29T01:08:18.207Z,12.63
2023-03-29T01:10:50.762Z,13.67
2023-03-29T01:13:27.355Z,13.10
2023-03-29T01:15:57.282Z,14.20
2023-03-29T01:18:25.362Z,13.63
2023-03-29T01:21:07.897Z,13.30
2023-03-29T01:23:51.114Z,14.00
2023-03-29T01:26:27.139Z,13.53
2023-03-29T01:29:00.832Z,14.37
2023-03-29T01:31:32.565Z,13.37
2023-03-29T01:34:06.953Z,14.53
2023-03-29T01:36:40.338Z,15.40
2023-03-29T01:39:08.940Z,16.10
2023-03-29T01:41:43.826Z,15.03
2023-03-29T01:44:18.871Z,15.33
2023-03-29T01:46:48.490Z,15.90
2023-03-29T01:49:23.448Z,16.07
2023-03-29T01:51:56.191Z,16.27
2023-03-29T01:54:29.210Z,17.57
2023-03-29T01:56:58.616Z,16.53
2023-03-29T01:59:32.310Z,15.83
2023-03-29T02:02:02.673Z,17.20
2023-03-29T02:04:34.559Z,16.37
2023-03-29T02:07:04.470Z,18.03
2023-03-29T02:09:34.487Z,17.40
2023-03-29T02:12:04.168Z,17.10
2023-03-29T02:14:33.607Z,16.97
2023-03-29T02:17:16.599Z,17.70
2023-03-29T02:19:50.219Z,16.73
2023-03-29T02:22:24.134Z,16.67
2023-03-29T02:24:59.155Z,17.60
2023-03-29T02:27:29.123Z,15.97
2023-03-29T02:29:59.247Z,17.30
2023-03-29T02:32:35.176Z,15.93
2023-03-29T02:35:07.145Z,17.37
2023-03-29T02:37:40.595Z,17.73
2023-03-29T02:40:12.612Z,17.43
2023-03-29T02:42:41.930Z,17.10
2023-03-29T02:45:13.387Z,18.20
2023-03-29T02:47:45.537Z,19.60
2023-03-29T02:50:14.104Z,17.90
2023-03-29T02:52:47.154Z,17.33
2023-03-29T02:55:18.808Z,17.43
2023-03-29T02:57:47.045Z,16.50
2023-03-29T03:00:18.884Z,17.70
2023-03-29T03:02:48.078Z,16.13
2023-03-29T03:05:16.258Z,15.97
2023-03-29T03:07:44.295Z,16.43
2023-03-29T03:10:12.658Z,16.37
2023-03-29T03:12:40.707Z,16.73
2023-03-29T03:15:10.582Z,15.60
2023-03-29T03:17:40.421Z,15.60
2023-03-29T03:20:13.066Z,14.70
2023-03-29T03:22:42.538Z,16.73
2023-03-29T03:25:13.333Z,14.93
2023-03-29T03:27:41.402Z,16.43
2023-03-29T03:30:11.124Z,16.30
2023-03-29T03:32:41.410Z,15.60
2023-03-29T03:35:11.685Z,15.60
2023-03-29T03:37:40.619Z,16.13
2023-03-29T03:40:11.595Z,15.80
2023-03-29T03:42:40.225Z,15.97
2023-03-29T03:45:10.663Z,16.80
2023-03-29T03:47:41.101Z,15.53
2023-03-29T03:50:10.280Z,15.43
2023-03-29T03:52:38.306Z,16.40
2023-03-29T03:55:06.816Z,16.80
2023-03-29T03:57:37.504Z,16.00
2023-03-29T04:00:19.313Z,17.80
2023-03-29T04:02:49.937Z,17.20
2023-03-29T04:05:18.291Z,17.47
2023-03-29T04:07:46.341Z,17.80
2023-03-29T04:10:14.767Z,16.90
2023-03-29T04:12:43.042Z,18.10
2023-03-29T04:15:12.149Z,17.03
2023-03-29T04:17:40.450Z,16.60
2023-03-29T04:20:12.760Z,17.27
2023-03-29T04:22:41.862Z,17.20
2023-03-29T04:25:11.720Z,17.03
2023-03-29T04:27:40.412Z,16.73
2023-03-29T04:30:09.791Z,18.70
2023-03-29T04:32:38.176Z,17.27
2023-03-29T04:35:07.026Z,17.20
2023-03-29T04:37:37.080Z,17.30
2023-03-29T04:40:08.446Z,18.97
2023-03-29T04:42:37.331Z,18.57
2023-03-29T04:45:07.000Z,18.67
2023-03-29T04:47:36.609Z,20.13
2023-03-29T04:50:05.201Z,19.90
2023-03-29T04:52:33.494Z,19.83
2023-03-29T04:55:03.144Z,19.97
2023-03-29T04:57:31.126Z,20.60
2023-03-29T04:59:59.276Z,20.57
2023-03-29T05:02:27.395Z,22.10
2023-03-29T05:04:55.470Z,20.43
2023-03-29T05:07:23.407Z,22.93
2023-03-29T05:09:52.010Z,22.47
2023-03-29T05:12:21.385Z,24.80
2023-03-29T05:14:49.331Z,25.07
2023-03-29T05:17:17.353Z,23.03
2023-03-29T05:19:45.508Z,24.37
2023-03-29T05:22:14.085Z,24.90
2023-03-29T05:24:42.150Z,23.90
2023-03-29T05:27:10.161Z,24.57
2023-03-29T05:29:39.580Z,24.37
2023-03-29T05:32:08.135Z,24.00
2023-03-29T05:34:36.567Z,26.63
2023-03-29T05:37:04.606Z,25.33
2023-03-29T05:39:35.144Z,24.33
2023-03-29T05:42:05.962Z,26.45
2023-03-29T05:44:34.288Z,26.00
2023-03-29T05:47:03.655Z,22.73
2023-03-29T05:49:31.944Z,24.30
2023-03-29T05:52:00.440Z,23.03
2023-03-29T05:54:28.444Z,23.50
2023-03-29T05:56:56.454Z,23.17
2023-03-29T05:59:24.753Z,23.20
2023-03-29T06:01:53.038Z,21.17
2023-03-29T06:04:22.905Z,21.63
2023-03-29T06:06:53.504Z,21.67
2023-03-29T06:09:21.686Z,21.87
2023-03-29T06:11:49.991Z,21.60
2023-03-29T06:14:19.012Z,20.37
2023-03-29T06:16:47.161Z,20.87
2023-03-29T06:19:15.296Z,21.20
2023-03-29T06:21:44.994Z,20.13
2023-03-29T06:24:13.462Z,19.83
2023-03-29T06:26:42.046Z,19.63
2023-03-29T06:29:10.342Z,20.90
2023-03-29T06:31:38.501Z,19.47
2023-03-29T06:34:06.709Z,20.43
2023-03-29T06:36:35.249Z,19.87
2023-03-29T06:39:08.708Z,20.57
2023-03-29T06:41:36.848Z,21.53
2023-03-29T06:44:06.775Z,20.47
2023-03-29T06:46:35.240Z,18.63
2023-03-29T06:49:03.342Z,18.50
2023-03-29T06:51:31.355Z,19.13
2023-03-29T06:54:00.003Z,18.23
2023-03-29T06:56:32.209Z,17.40
2023-03-29T06:59:00.546Z,17.90
2023-03-29T07:01:28.744Z,19.73
2023-03-29T07:03:57.651Z,17.93
2023-03-29T07:06:26.418Z,16.70
2023-03-29T07:08:55.260Z,16.47
2023-03-29T07:11:23.301Z,16.10
2023-03-29T07:13:52.740Z,15.10
2023-03-29T07:16:21.174Z,15.40
2023-03-29T07:18:49.214Z,15.20
2023-03-29T07:21:17.518Z,15.23
2023-03-29T07:23:45.854Z,13.77
2023-03-29T07:26:14.465Z,13.93
2023-03-29T07:28:58.715Z,12.47
2023-03-29T07:31:29.364Z,14.53
2023-03-29T07:33:57.501Z,14.57
2023-03-29T07:36:28.553Z,13.53
2023-03-29T07:38:57.836Z,14.13
2023-03-29T07:41:25.900Z,13.43
2023-03-29T07:43:54.318Z,14.03
2023-03-29T07:46:24.202Z,14.33
2023-03-29T07:48:52.721Z,13.23
2023-03-29T07:51:20.708Z,12.30
2023-03-29T07:53:49.216Z,12.47
2023-03-29T07:56:17.240Z,13.23
2023-03-29T07:58:46.579Z,11.80
2023-03-29T08:01:18.779Z,11.47
2023-03-29T08:03:49.262Z,10.43
2023-03-29T08:06:17.738Z,10.73
2023-03-29T08:08:46.258Z,10.57
2023-03-29T08:11:14.323Z,11.53
2023-03-29T08:13:42.585Z,10.30
2023-03-29T08:16:11.310Z,9.63
2023-03-29T08:18:39.304Z,9.57
2023-03-29T08:21:09.361Z,9.63
2023-03-29T08:23:37.426Z,10.30
2023-03-29T08:26:05.682Z,10.30
2023-03-29T08:28:33.629Z,9.63
2023-03-29T08:31:02.046Z,9.33
2023-03-29T08:33:30.343Z,8.73
2023-03-29T08:35:58.508Z,8.40
2023-03-29T08:38:28.111Z,8.83
2023-03-29T08:40:56.674Z,8.43
2023-03-29T08:43:47.044Z,8.73
2023-03-29T08:46:34.520Z,8.80
2023-03-29T08:49:05.022Z,8.80
2023-03-29T08:51:37.350Z,8.60
2023-03-29T08:54:12.890Z,9.77
2023-03-29T08:56:43.416Z,8.93
2023-03-29T08:59:20.578Z,6.87
2023-03-29T09:01:51.391Z,8.67
2023-03-29T09:04:23.530Z,9.30
2023-03-29T09:06:52.407Z,8.40
2023-03-29T09:09:24.120Z,8.37
2023-03-29T09:12:08.082Z,6.93
2023-03-29T09:14:48.858Z,7.40
2023-03-29T09:17:31.734Z,10.43
2023-03-29T09:20:10.432Z,7.67
2023-03-29T09:22:44.861Z,7.70
2023-03-29T09:25:21.386Z,8.13
2023-03-29T09:27:53.807Z,6.70
2023-03-29T09:30:27.103Z,7.35
2023-03-29T09:32:58.579Z,6.22
2023-03-29T09:35:32.059Z,5.93
2023-03-29T09:38:00.765Z,6.40
2023-03-29T09:40:35.941Z,6.32
2023-03-29T09:43:05.788Z,6.38
2023-03-29T09:45:34.195Z,6.70
2023-03-29T09:48:07.911Z,6.72
2023-03-29T09:50:38.896Z,5.57
2023-03-29T09:53:07.441Z,5.60
2023-03-29T09:55:40.358Z,6.05
2023-03-29T09:58:16.008Z,5.70
2023-03-29T10:00:45.856Z,5.68
2023-03-29T10:03:19.463Z,6.07
2023-03-29T10:05:50.206Z,5.75
2023-03-29T10:08:22.517Z,6.13
2023-03-29T10:10:52.276Z,6.15
2023-03-29T10:13:24.031Z,5.68
2023-03-29T10:16:02.365Z,5.50
2023-03-29T10:18:31.730Z,5.45
2023-03-29T10:21:02.588Z,6.00
2023-03-29T10:23:33.380Z,5.40
2023-03-29T10:26:05.550Z,5.85
2023-03-29T10:28:36.404Z,6.75
2023-03-29T10:31:08.045Z,6.90
2023-03-29T10:33:37.361Z,6.85
2023-03-29T10:36:08.022Z,7.00
2023-03-29T10:38:37.215Z,6.32
2023-03-29T10:41:10.005Z,6.50
2023-03-29T10:43:40.604Z,6.22
2023-03-29T10:46:13.267Z,6.97
2023-03-29T10:48:47.001Z,6.00
2023-03-29T10:51:16.227Z,6.72
2023-03-29T10:53:44.532Z,6.70
2023-03-29T10:56:28.021Z,5.63
2023-03-29T10:59:18.441Z,6.18
2023-03-29T11:01:58.982Z,6.07
2023-03-29T11:04:34.524Z,5.63
2023-03-29T11:07:27.431Z,5.70
2023-03-29T11:10:05.995Z,6.30
2023-03-29T11:12:45.041Z,6.30
2023-03-29T11:15:23.552Z,6.67
2023-03-29T11:17:59.904Z,6.83
2023-03-29T11:20:33.937Z,6.13
2023-03-29T11:23:12.267Z,5.90
2023-03-29T11:25:54.333Z,5.57
2023-03-29T11:28:32.465Z,6.73
2023-03-29T11:31:10.935Z,5.60
2023-03-29T11:33:53.118Z,6.23
2023-03-29T11:36:26.808Z,5.90
2023-03-29T11:39:05.299Z,6.40
2023-03-29T11:41:36.834Z,6.30
2023-03-29T11:44:09.933Z,5.83
2023-03-29T11:46:40.719Z,6.87
2023-03-29T11:49:15.505Z,5.90
2023-03-29T11:51:48.942Z,5.70
2023-03-29T11:54:23.167Z,5.50
2023-03-29T11:56:57.343Z,5.77
2023-03-29T11:59:31.717Z,5.57
2023-03-29T12:02:06.636Z,5.90
2023-03-29T12:04:39.775Z,6.40
2023-03-29T12:07:15.803Z,6.57
2023-03-29T12:09:51.023Z,6.80
2023-03-29T12:12:25.664Z,6.67
2023-03-29T12:15:04.431Z,5.90
2023-03-29T12:17:38.857Z,6.47
2023-03-29T12:20:17.192Z,7.00
2023-03-29T12:22:49.139Z,6.00
2023-03-29T12:25:22.743Z,7.40
2023-03-29T12:28:01.886Z,7.80
2023-03-29T12:30:40.881Z,7.33
2023-03-29T12:33:27.685Z,8.23
2023-03-29T12:36:18.011Z,8.90
2023-03-29T12:38:48.166Z,7.93
2023-03-29T12:41:19.109Z,8.40
2023-03-29T12:43:48.612Z,6.63
2023-03-29T12:46:20.324Z,6.87
2023-03-29T12:48:54.553Z,6.60
2023-03-29T12:51:29.410Z,6.80
2023-03-29T12:54:07.320Z,5.63
2023-03-29T12:56:42.751Z,6.30
2023-03-29T12:59:35.148Z,6.73
2023-03-29T13:02:27.234Z,6.40
2023-03-29T13:04:57.390Z,9.53
2023-03-29T13:07:34.874Z,7.50
2023-03-29T13:10:04.979Z,7.23
2023-03-29T13:12:41.943Z,7.47
2023-03-29T13:15:24.468Z,6.53
2023-03-29T13:18:01.269Z,7.27
2023-03-29T13:20:43.728Z,8.10
2023-03-29T13:23:27.480Z,6.33
2023-03-29T13:26:13.095Z,6.70
2023-03-29T13:28:56.605Z,6.80
2023-03-29T13:31:35.526Z,6.23
2023-03-29T13:36:49.691Z,6.53
2023-03-29T13:39:22.733Z,6.43
2023-03-29T13:41:52.099Z,7.30
2023-03-29T13:44:29.741Z,7.80
2023-03-29T13:47:06.991Z,7.10
2023-03-29T13:49:37.048Z,6.00
2023-03-29T13:52:16.703Z,5.77
2023-03-29T13:54:53.020Z,6.60
2023-03-29T13:57:24.209Z,6.37
2023-03-29T13:59:58.130Z,6.20
2023-03-29T14:02:42.559Z,5.97
2023-03-29T14:05:14.731Z,6.20
2023-03-29T14:07:47.785Z,6.97
2023-03-29T14:10:18.958Z,6.63
2023-03-29T14:12:47.593Z,7.67
2023-03-29T14:15:27.732Z,5.83
2023-03-29T14:18:00.342Z,6.80
2023-03-29T14:20:32.313Z,6.17
2023-03-29T14:23:00.545Z,6.23
2023-03-29T14:25:30.407Z,6.60
2023-03-29T14:27:58.479Z,6.40
2023-03-29T14:30:29.045Z,6.00
2023-03-29T14:32:57.479Z,6.20
2023-03-29T14:35:33.209Z,5.80
2023-03-29T14:38:02.598Z,6.53
2023-03-29T14:40:32.165Z,6.60
2023-03-29T14:43:05.344Z,6.27
2023-03-29T14:45:33.630Z,6.20
2023-03-29T14:48:02.159Z,6.37
2023-03-29T14:50:32.394Z,6.60
2023-03-29T14:53:01.433Z,6.07
2023-03-29T14:55:31.060Z,6.10
2023-03-29T14:58:00.316Z,6.60
2023-03-29T15:00:31.227Z,6.37
2023-03-29T15:03:02.009Z,6.13
2023-03-29T15:05:41.164Z,6.70
2023-03-29T15:08:14.629Z,6.83
2023-03-29T15:10:45.074Z,8.50
2023-03-29T15:13:19.522Z,7.07
2023-03-29T15:15:47.762Z,7.10
2023-03-29T15:18:17.884Z,6.90
2023-03-29T15:20:47.338Z,6.67
2023-03-29T15:23:25.429Z,6.60
2023-03-29T15:25:58.430Z,6.50
2023-03-29T15:28:31.080Z,6.13
2023-03-29T15:31:07.885Z,6.10
2023-03-29T15:33:38.549Z,6.40
2023-03-29T15:36:10.719Z,6.97
2023-03-29T15:38:44.764Z,6.40
2023-03-29T15:41:14.597Z,6.00
2023-03-29T15:43:43.122Z,6.60
2023-03-29T15:46:13.904Z,6.60
2023-03-29T15:48:42.221Z,7.10
2023-03-29T15:51:12.742Z,6.73
2023-03-29T15:53:41.390Z,7.27
2023-03-29T15:56:11.411Z,7.17
2023-03-29T15:58:40.003Z,6.80
2023-03-29T16:01:16.044Z,7.33
2023-03-29T16:03:47.678Z,7.13
2023-03-29T16:06:18.455Z,6.90
2023-03-29T16:08:46.516Z,6.33
2023-03-29T16:11:14.862Z,6.33
2023-03-29T16:13:43.031Z,7.53
2023-03-29T16:16:12.167Z,6.90
2023-03-29T16:18:40.610Z,7.27
2023-03-29T16:21:12.640Z,7.27
2023-03-29T16:23:42.915Z,8.03
2023-03-29T16:26:13.665Z,7.90
2023-03-29T16:28:42.157Z,7.40
2023-03-29T16:31:11.959Z,6.70
2023-03-29T16:33:40.494Z,7.60
2023-03-29T16:36:11.665Z,8.20
2023-03-29T16:38:41.564Z,11.53
2023-03-29T16:41:14.977Z,14.53
2023-03-29T16:43:43.137Z,12.67
2023-03-29T16:46:12.924Z,10.40
2023-03-29T16:48:41.014Z,10.13
2023-03-29T16:51:10.530Z,9.57
2023-03-29T16:53:38.797Z,9.50
2023-03-29T16:56:08.953Z,9.40
2023-03-29T16:58:37.276Z,7.57
2023-03-29T17:01:09.988Z,7.27
2023-03-29T17:03:38.490Z,8.07
2023-03-29T17:06:08.024Z,7.47
2023-03-29T17:08:36.708Z,7.73
2023-03-29T17:11:06.335Z,7.40
2023-03-29T17:13:37.465Z,7.20
2023-03-29T17:16:06.751Z,7.93
2023-03-29T17:18:34.930Z,7.67
2023-03-29T17:21:03.176Z,7.80
2023-03-29T17:23:31.178Z,7.87
2023-03-29T17:25:59.209Z,8.87
2023-03-29T17:28:27.302Z,9.63
2023-03-29T17:30:56.736Z,8.80
2023-03-29T17:33:26.354Z,8.77
2023-03-29T17:35:54.649Z,8.10
2023-03-29T17:38:22.695Z,8.33
2023-03-29T17:40:53.961Z,8.20
2023-03-29T17:43:22.170Z,7.93
2023-03-29T17:45:52.204Z,7.80
2023-03-29T17:48:21.874Z,8.27
2023-03-29T17:50:49.891Z,8.63
2023-03-29T17:53:17.992Z,8.63
2023-03-29T17:55:46.351Z,7.63
2023-03-29T17:58:14.453Z,8.37
2023-03-29T18:00:42.476Z,8.53
2023-03-29T18:03:10.626Z,9.43
2023-03-29T18:05:40.122Z,8.60
2023-03-29T18:08:08.701Z,10.03
2023-03-29T18:10:36.863Z,8.93
2023-03-29T18:13:04.988Z,8.70
2023-03-29T18:15:33.001Z,10.20
2023-03-29T18:18:01.402Z,10.50
2023-03-29T18:20:29.392Z,9.80
2023-03-29T18:22:58.727Z,9.20
2023-03-29T18:25:27.091Z,9.83
2023-03-29T18:27:55.123Z,9.73
2023-03-29T18:30:23.178Z,9.37
2023-03-29T18:32:51.160Z,9.27
2023-03-29T18:35:19.304Z,10.47
2023-03-29T18:37:47.326Z,10.37
2023-03-29T18:40:20.420Z,9.97
2023-03-29T18:42:48.427Z,10.70
2023-03-29T18:45:16.456Z,10.37
2023-03-29T18:47:44.575Z,12.00
2023-03-29T18:50:13.274Z,12.27
2023-03-29T18:52:41.288Z,12.63
2023-03-29T18:55:10.252Z,13.23
2023-03-29T18:57:39.638Z,13.73
2023-03-29T19:00:12.417Z,12.97
2023-03-29T19:02:40.647Z,13.13
2023-03-29T19:05:10.072Z,14.43
2023-03-29T19:07:38.300Z,13.67
2023-03-29T19:10:08.149Z,13.80
2023-03-29T19:12:36.797Z,15.10
2023-03-29T19:15:07.253Z,13.93
2023-03-29T19:17:35.321Z,14.57
2023-03-29T19:20:04.815Z,13.77
2023-03-29T19:22:33.999Z,13.37
2023-03-29T19:25:02.058Z,13.60
2023-03-29T19:27:30.205Z,13.93
2023-03-29T19:29:58.268Z,13.33
2023-03-29T19:32:27.677Z,14.03
2023-03-29T19:34:56.029Z,13.63
2023-03-29T19:37:24.032Z,13.13
2023-03-29T19:39:54.590Z,13.10
2023-03-29T19:42:22.590Z,13.47
2023-03-29T19:44:50.624Z,13.57
2023-03-29T19:47:18.710Z,14.27
2023-03-29T19:49:48.075Z,14.23
2023-03-29T19:52:16.145Z,13.20
2023-03-29T19:54:44.238Z,15.30
2023-03-29T19:57:12.571Z,14.30
2023-03-29T19:59:41.089Z,15.33
2023-03-29T20:02:11.764Z,15.70
2023-03-29T20:04:40.082Z,13.63
2023-03-29T20:07:09.615Z,13.80
2023-03-29T20:09:37.722Z,13.97
2023-03-29T20:12:06.171Z,15.13
2023-03-29T20:14:34.957Z,14.37
2023-03-29T20:17:03.463Z,14.63
2023-03-29T20:19:31.451Z,14.70
2023-03-29T20:22:00.733Z,13.57
2023-03-29T20:24:31.362Z,12.93
2023-03-29T20:26:59.422Z,13.23
2023-03-29T20:29:27.717Z,12.70
2023-03-29T20:31:55.746Z,12.57
2023-03-29T20:34:23.882Z,12.00
2023-03-29T20:36:55.186Z,11.87
2023-03-29T20:39:25.710Z,11.80
2023-03-29T20:41:55.549Z,12.70
2023-03-29T20:44:26.259Z,11.67
2023-03-29T20:47:05.018Z,12.80
2023-03-29T20:49:37.189Z,12.97
2023-03-29T20:52:08.402Z,13.67
2023-03-29T20:54:37.808Z,13.87
2023-03-29T20:57:07.954Z,13.83
2023-03-29T20:59:36.160Z,14.93
2023-03-29T21:02:04.272Z,14.80
2023-03-29T21:04:32.413Z,15.13
2023-03-29T21:07:02.998Z,15.60
2023-03-29T21:09:34.320Z,15.40
2023-03-29T21:12:02.611Z,15.27
2023-03-29T21:14:33.129Z,14.50
2023-03-29T21:17:01.486Z,15.50
2023-03-29T21:19:29.833Z,15.27
2023-03-29T21:21:58.124Z,14.33
2023-03-29T21:24:26.185Z,14.57
2023-03-29T21:26:54.122Z,14.43
2023-03-29T21:29:22.085Z,14.83
2023-03-29T21:31:51.516Z,15.30
2023-03-29T21:34:19.546Z,14.50
2023-03-29T21:36:47.610Z,15.87
2023-03-29T21:39:15.625Z,14.47
2023-03-29T21:41:43.802Z,14.37
2023-03-29T21:44:11.815Z,14.57
2023-03-29T21:46:39.838Z,14.10
2023-03-29T21:49:09.337Z,14.40
2023-03-29T21:51:37.344Z,15.10
2023-03-29T21:54:05.813Z,15.20
2023-03-29T21:56:33.830Z,16.07
2023-03-29T21:59:01.825Z,14.27
2023-03-29T22:01:29.900Z,15.53
2023-03-29T22:03:57.889Z,15.63
2023-03-29T22:06:27.256Z,15.23
2023-03-29T22:08:55.242Z,15.63
2023-03-29T22:11:25.662Z,14.67
2023-03-29T22:13:53.759Z,15.50
2023-03-29T22:16:22.156Z,15.43
2023-03-29T22:18:50.490Z,14.10
2023-03-29T22:21:22.527Z,14.80
2023-03-29T22:23:54.292Z,14.73
2023-03-29T22:26:24.370Z,14.30
2023-03-29T22:28:52.714Z,13.77
2023-03-29T22:31:23.248Z,13.60
2023-03-29T22:33:51.372Z,14.07
2023-03-29T22:36:21.042Z,14.70
2023-03-29T22:38:51.321Z,14.27
2023-03-29T22:41:21.671Z,14.10
2023-03-29T22:43:51.160Z,14.70
2023-03-29T22:46:19.981Z,14.27
2023-03-29T22:48:48.187Z,14.77
2023-03-29T22:51:16.738Z,13.90
2023-03-29T22:53:46.986Z,13.50
2023-03-29T22:56:17.031Z,14.07
2023-03-29T22:58:45.790Z,14.13
2023-03-29T23:01:15.810Z,14.03
2023-03-29T23:03:43.949Z,13.87
2023-03-29T23:06:12.183Z,12.87
2023-03-29T23:08:40.140Z,13.63
2023-03-29T23:11:08.312Z,12.97
2023-03-29T23:13:37.682Z,12.43
2023-03-29T23:16:06.179Z,12.43
2023-03-29T23:18:37.655Z,12.03
2023-03-29T23:21:07.626Z,11.37
2023-03-29T23:23:36.852Z,11.87
2023-03-29T23:26:06.181Z,10.93
2023-03-29T23:28:34.703Z,10.60
2023-03-29T23:31:06.772Z,11.40
2023-03-29T23:33:36.603Z,11.10
2023-03-29T23:36:06.757Z,11.23
2023-03-29T23:38:36.562Z,11.20
2023-03-29T23:41:07.009Z,10.43
2023-03-29T23:43:37.196Z,10.27
2023-03-29T23:46:08.650Z,10.67
2023-03-29T23:48:36.639Z,10.17
2023-03-29T23:51:05.093Z,9.87
2023-03-29T23:53:33.418Z,9.70
2023-03-29T23:56:02.994Z,10.00
2023-03-29T23:58:32.588Z,10.23
